sensor_id;sensor_type;location;lat;lon;timestamp;pressure;altitude;pressure_sealevel;temperature;humidity
53270;BME280;39159;45.634;9.420;2023-06-14T00:01:41;98337.06;;;16.75;100.00
53270;BME280;39159;45.634;9.420;2023-06-14T00:04:06;98344.88;;;16.53;100.00
53270;BME280;39159;45.634;9.420;2023-06-14T00:06:34;98350.47;;;16.37;100.00
53270;BME280;39159;45.634;9.420;2023-06-14T00:08:59;98354.50;;;16.24;100.00
53270;BME280;39159;45.634;9.420;2023-06-14T00:11:25;98345.38;;;16.20;100.00
53270;BME280;39159;45.634;9.420;2023-06-14T00:13:52;98342.91;;;16.15;100.00
53270;BME280;39159;45.634;9.420;2023-06-14T00:16:17;98341.28;;;16.14;100.00
53270;BME280;39159;45.634;9.420;2023-06-14T00:18:44;98341.28;;;16.14;100.00
53270;BME280;39159;45.634;9.420;2023-06-14T00:21:11;98338.13;;;16.12;100.00
53270;BME280;39159;45.634;9.420;2023-06-14T00:23:37;98334.56;;;16.11;100.00
53270;BME280;39159;45.634;9.420;2023-06-14T00:26:03;98336.06;;;16.09;100.00
53270;BME280;39159;45.634;9.420;2023-06-14T00:28:28;98331.91;;;16.15;100.00
53270;BME280;39159;45.634;9.420;2023-06-14T00:30:54;98343.94;;;16.26;100.00
53270;BME280;39159;45.634;9.420;2023-06-14T00:33:19;98345.16;;;16.29;100.00
53270;BME280;39159;45.634;9.420;2023-06-14T00:35:45;98338.50;;;16.30;100.00
53270;BME280;39159;45.634;9.420;2023-06-14T00:38:10;98335.97;;;16.21;100.00
53270;BME280;39159;45.634;9.420;2023-06-14T00:40:36;98329.72;;;16.24;100.00
53270;BME280;39159;45.634;9.420;2023-06-14T00:43:01;98326.63;;;16.26;100.00
53270;BME280;39159;45.634;9.420;2023-06-14T00:45:27;98340.44;;;16.29;100.00
53270;BME280;39159;45.634;9.420;2023-06-14T00:47:52;98334.78;;;16.22;100.00
53270;BME280;39159;45.634;9.420;2023-06-14T00:50:20;98341.53;;;16.25;100.00
53270;BME280;39159;45.634;9.420;2023-06-14T00:52:48;98339.16;;;16.23;100.00
53270;BME280;39159;45.634;9.420;2023-06-14T00:55:14;98340.38;;;16.26;100.00
53270;BME280;39159;45.634;9.420;2023-06-14T00:57:40;98343.94;;;16.26;100.00
53270;BME280;39159;45.634;9.420;2023-06-14T01:00:06;98338.88;;;16.28;100.00
53270;BME280;39159;45.634;9.420;2023-06-14T01:02:38;98346.69;;;16.26;100.00
53270;BME280;39159;45.634;9.420;2023-06-14T01:05:04;98348.34;;;16.31;100.00
53270;BME280;39159;45.634;9.420;2023-06-14T01:07:51;98351.91;;;16.31;100.00
53270;BME280;39159;45.634;9.420;2023-06-14T01:10:26;98342.50;;;16.32;100.00
53270;BME280;39159;45.634;9.420;2023-06-14T01:15:30;98346.78;;;16.30;100.00
53270;BME280;39159;45.634;9.420;2023-06-14T01:17:56;98348.34;;;16.31;100.00
53270;BME280;39159;45.634;9.420;2023-06-14T01:20:29;98353.13;;;16.34;100.00
53270;BME280;39159;45.634;9.420;2023-06-14T01:22:55;98354.38;;;16.36;100.00
53270;BME280;39159;45.634;9.420;2023-06-14T01:25:21;98346.13;;;16.36;100.00
53270;BME280;39159;45.634;9.420;2023-06-14T01:28:02;98350.03;;;16.35;100.00
53270;BME280;39159;45.634;9.420;2023-06-14T01:30:30;98352.88;;;16.39;100.00
53270;BME280;39159;45.634;9.420;2023-06-14T01:32:58;98352.91;;;16.43;100.00
53270;BME280;39159;45.634;9.420;2023-06-14T01:35:24;98352.56;;;16.44;100.00
53270;BME280;39159;45.634;9.420;2023-06-14T01:37:51;98356.56;;;16.47;100.00
53270;BME280;39159;45.634;9.420;2023-06-14T01:40:18;98344.38;;;16.48;100.00
53270;BME280;39159;45.634;9.420;2023-06-14T01:42:46;98345.19;;;16.48;100.00
53270;BME280;39159;45.634;9.420;2023-06-14T01:45:13;98340.41;;;16.45;100.00
53270;BME280;39159;45.634;9.420;2023-06-14T01:47:39;98344.22;;;16.41;100.00
53270;BME280;39159;45.634;9.420;2023-06-14T01:50:06;98344.06;;;16.33;100.00
53270;BME280;39159;45.634;9.420;2023-06-14T01:52:31;98353.22;;;16.37;100.00
53270;BME280;39159;45.634;9.420;2023-06-14T01:54:57;98344.50;;;16.35;100.00
53270;BME280;39159;45.634;9.420;2023-06-14T01:57:23;98352.00;;;16.35;100.00
53270;BME280;39159;45.634;9.420;2023-06-14T01:59:50;98345.75;;;16.38;100.00
53270;BME280;39159;45.634;9.420;2023-06-14T02:02:16;98344.03;;;16.30;100.00
53270;BME280;39159;45.634;9.420;2023-06-14T02:04:42;98345.47;;;16.24;100.00
53270;BME280;39159;45.634;9.420;2023-06-14T02:07:07;98347.78;;;16.22;100.00
53270;BME280;39159;45.634;9.420;2023-06-14T02:09:34;98348.56;;;16.22;100.00
53270;BME280;39159;45.634;9.420;2023-06-14T02:12:00;98340.31;;;16.22;100.00
53270;BME280;39159;45.634;9.420;2023-06-14T02:14:25;98341.03;;;16.19;100.00
53270;BME280;39159;45.634;9.420;2023-06-14T02:16:51;98344.13;;;16.17;100.00
53270;BME280;39159;45.634;9.420;2023-06-14T02:19:19;98346.09;;;16.17;100.00
53270;BME280;39159;45.634;9.420;2023-06-14T02:21:45;98341.38;;;16.17;100.00
53270;BME280;39159;45.634;9.420;2023-06-14T02:24:11;98336.41;;;16.23;100.00
53270;BME280;39159;45.634;9.420;2023-06-14T02:26:37;98330.06;;;16.23;100.00
53270;BME280;39159;45.634;9.420;2023-06-14T02:29:08;98329.56;;;16.17;100.00
53270;BME280;39159;45.634;9.420;2023-06-14T02:31:36;98328.94;;;16.24;100.00
53270;BME280;39159;45.634;9.420;2023-06-14T02:34:02;98322.19;;;16.21;100.00
53270;BME280;39159;45.634;9.420;2023-06-14T02:36:27;98328.59;;;16.25;100.00
53270;BME280;39159;45.634;9.420;2023-06-14T02:38:56;98319.06;;;16.23;100.00
53270;BME280;39159;45.634;9.420;2023-06-14T02:41:24;98323.06;;;16.25;100.00
53270;BME280;39159;45.634;9.420;2023-06-14T02:43:49;98317.63;;;16.29;100.00
53270;BME280;39159;45.634;9.420;2023-06-14T02:46:15;98312.06;;;16.25;100.00
53270;BME280;39159;45.634;9.420;2023-06-14T02:48:40;98315.59;;;16.26;100.00
53270;BME280;39159;45.634;9.420;2023-06-14T02:51:06;98306.97;;;16.27;100.00
53270;BME280;39159;45.634;9.420;2023-06-14T02:53:33;98305.03;;;16.28;100.00
53270;BME280;39159;45.634;9.420;2023-06-14T02:55:59;98305.38;;;16.26;100.00
53270;BME280;39159;45.634;9.420;2023-06-14T02:58:25;98298.72;;;16.27;100.00
53270;BME280;39159;45.634;9.420;2023-06-14T03:00:50;98301.06;;;16.25;100.00
53270;BME280;39159;45.634;9.420;2023-06-14T03:03:18;98299.34;;;16.21;100.00
53270;BME280;39159;45.634;9.420;2023-06-14T03:05:45;98301.06;;;16.25;100.00
53270;BME280;39159;45.634;9.420;2023-06-14T03:08:13;98294.72;;;16.25;100.00
53270;BME280;39159;45.634;9.420;2023-06-14T03:10:45;98298.34;;;16.29;100.00
53270;BME280;39159;45.634;9.420;2023-06-14T03:13:10;98304.31;;;16.31;100.00
53270;BME280;39159;45.634;9.420;2023-06-14T03:15:36;98299.44;;;16.24;100.00
53270;BME280;39159;45.634;9.420;2023-06-14T03:18:02;98301.06;;;16.25;100.00
53270;BME280;39159;45.634;9.420;2023-06-14T03:20:29;98305.25;;;16.19;100.00
53270;BME280;39159;45.634;9.420;2023-06-14T03:22:59;98300.53;;;16.20;100.00
53270;BME280;39159;45.634;9.420;2023-06-14T03:25:25;98299.75;;;16.19;100.00
53270;BME280;39159;45.634;9.420;2023-06-14T03:27:51;98297.69;;;16.16;100.00
53270;BME280;39159;45.634;9.420;2023-06-14T03:30:17;98293.66;;;16.10;100.00
53270;BME280;39159;45.634;9.420;2023-06-14T03:32:42;98295.31;;;16.14;100.00
53270;BME280;39159;45.634;9.420;2023-06-14T03:35:08;98290.25;;;16.16;100.00
53270;BME280;39159;45.634;9.420;2023-06-14T03:37:35;98289.50;;;16.20;100.00
53270;BME280;39159;45.634;9.420;2023-06-14T03:40:00;98288.28;;;16.17;100.00
53270;BME280;39159;45.634;9.420;2023-06-14T03:42:26;98284.75;;;16.16;100.00
53270;BME280;39159;45.634;9.420;2023-06-14T03:44:51;98288.72;;;16.19;100.00
53270;BME280;39159;45.634;9.420;2023-06-14T03:47:17;98288.28;;;16.17;100.00
53270;BME280;39159;45.634;9.420;2023-06-14T03:49:42;98279.72;;;16.22;100.00
53270;BME280;39159;45.634;9.420;2023-06-14T03:52:08;98276.69;;;16.27;100.00
53270;BME280;39159;45.634;9.420;2023-06-14T03:54:33;98284.88;;;16.24;100.00
53270;BME280;39159;45.634;9.420;2023-06-14T03:56:59;98281.34;;;16.23;100.00
53270;BME280;39159;45.634;9.420;2023-06-14T03:59:25;98280.03;;;16.17;100.00
53270;BME280;39159;45.634;9.420;2023-06-14T04:01:51;98286.31;;;16.17;100.00
53270;BME280;39159;45.634;9.420;2023-06-14T04:04:16;98275.75;;;16.20;100.00
53270;BME280;39159;45.634;9.420;2023-06-14T04:06:43;98284.44;;;16.22;100.00
53270;BME280;39159;45.634;9.420;2023-06-14T04:09:09;98285.31;;;16.26;100.00
53270;BME280;39159;45.634;9.420;2023-06-14T04:11:34;98282.56;;;16.26;100.00
53270;BME280;39159;45.634;9.420;2023-06-14T04:14:01;98292.13;;;16.32;100.00
53270;BME280;39159;45.634;9.420;2023-06-14T04:16:27;98291.75;;;16.33;100.00
53270;BME280;39159;45.634;9.420;2023-06-14T04:18:54;98289.09;;;16.37;100.00
53270;BME280;39159;45.634;9.420;2023-06-14T04:21:20;98293.50;;;16.42;100.00
53270;BME280;39159;45.634;9.420;2023-06-14T04:23:46;98297.06;;;16.42;100.00
53270;BME280;39159;45.634;9.420;2023-06-14T04:26:11;98291.53;;;16.42;100.00
53270;BME280;39159;45.634;9.420;2023-06-14T04:28:37;98292.41;;;16.46;100.00
53270;BME280;39159;45.634;9.420;2023-06-14T04:31:06;98296.09;;;16.54;100.00
53270;BME280;39159;45.634;9.420;2023-06-14T04:33:36;98295.38;;;16.57;100.00
53270;BME280;39159;45.634;9.420;2023-06-14T04:36:09;98289.44;;;16.55;100.00
53270;BME280;39159;45.634;9.420;2023-06-14T04:38:37;98294.50;;;16.53;100.00
53270;BME280;39159;45.634;9.420;2023-06-14T04:41:02;98294.66;;;16.60;100.00
53270;BME280;39159;45.634;9.420;2023-06-14T04:43:28;98293.13;;;16.63;100.00
53270;BME280;39159;45.634;9.420;2023-06-14T04:45:53;98295.88;;;16.63;100.00
53270;BME280;39159;45.634;9.420;2023-06-14T04:48:21;98296.75;;;16.67;100.00
53270;BME280;39159;45.634;9.420;2023-06-14T04:50:46;98288.91;;;16.69;100.00
53270;BME280;39159;45.634;9.420;2023-06-14T04:53:12;98295.09;;;16.62;100.00
53270;BME280;39159;45.634;9.420;2023-06-14T04:55:38;98298.28;;;16.64;100.00
53270;BME280;39159;45.634;9.420;2023-06-14T04:58:03;98295.94;;;16.66;100.00
53270;BME280;39159;45.634;9.420;2023-06-14T05:00:30;98300.66;;;16.66;100.00
53270;BME280;39159;45.634;9.420;2023-06-14T05:02:55;98303.03;;;16.67;100.00
53270;BME280;39159;45.634;9.420;2023-06-14T05:05:22;98301.66;;;16.77;100.00
53270;BME280;39159;45.634;9.420;2023-06-14T05:07:48;98293.84;;;16.79;100.00
53270;BME280;39159;45.634;9.420;2023-06-14T05:10:13;98296.59;;;16.79;100.00
53270;BME280;39159;45.634;9.420;2023-06-14T05:12:39;98300.28;;;16.87;100.00
53270;BME280;39159;45.634;9.420;2023-06-14T05:15:04;98310.22;;;16.91;100.00
53270;BME280;39159;45.634;9.420;2023-06-14T05:17:30;98311.88;;;16.96;100.00
53270;BME280;39159;45.634;9.420;2023-06-14T05:19:55;98313.13;;;16.98;100.00
53270;BME280;39159;45.634;9.420;2023-06-14T05:22:21;98315.44;;;16.96;100.00
53270;BME280;39159;45.634;9.420;2023-06-14T05:24:47;98320.09;;;16.92;100.00
53270;BME280;39159;45.634;9.420;2023-06-14T05:27:13;98317.38;;;16.96;100.00
53270;BME280;39159;45.634;9.420;2023-06-14T05:29:39;98327.94;;;16.90;100.00
53270;BME280;39159;45.634;9.420;2023-06-14T05:32:05;98323.94;;;16.88;100.00
53270;BME280;39159;45.634;9.420;2023-06-14T05:34:31;98332.66;;;16.90;100.00
53270;BME280;39159;45.634;9.420;2023-06-14T05:36:56;98325.31;;;16.97;100.00
53270;BME280;39159;45.634;9.420;2023-06-14T05:39:22;98328.13;;;17.01;100.00
53270;BME280;39159;45.634;9.420;2023-06-14T05:41:49;98327.81;;;17.06;100.00
53270;BME280;39159;45.634;9.420;2023-06-14T05:44:14;98329.41;;;17.07;100.00
53270;BME280;39159;45.634;9.420;2023-06-14T05:46:40;98341.53;;;17.03;100.00
53270;BME280;39159;45.634;9.420;2023-06-14T05:49:06;98339.16;;;17.01;100.00
53270;BME280;39159;45.634;9.420;2023-06-14T05:51:31;98334.00;;;16.99;100.00
53270;BME280;39159;45.634;9.420;2023-06-14T05:53:57;98338.84;;;17.06;100.00
53270;BME280;39159;45.634;9.420;2023-06-14T05:56:23;98349.13;;;17.09;100.00
53270;BME280;39159;45.634;9.420;2023-06-14T05:58:49;98346.03;;;17.11;100.00
53270;BME280;39159;45.634;9.420;2023-06-14T06:01:14;98349.28;;;17.16;100.00
53270;BME280;39159;45.634;9.420;2023-06-14T06:03:40;98360.00;;;17.22;100.00
53270;BME280;39159;45.634;9.420;2023-06-14T06:06:06;98361.59;;;17.23;100.00
53270;BME280;39159;45.634;9.420;2023-06-14T06:08:33;98358.03;;;17.22;100.00
53270;BME280;39159;45.634;9.420;2023-06-14T06:10:58;98370.28;;;17.25;100.00
53270;BME280;39159;45.634;9.420;2023-06-14T06:13:25;98361.78;;;17.33;100.00
53270;BME280;39159;45.634;9.420;2023-06-14T06:15:50;98367.38;;;17.37;100.00
53270;BME280;39159;45.634;9.420;2023-06-14T06:18:16;98366.94;;;17.35;100.00
53270;BME280;39159;45.634;9.420;2023-06-14T06:20:42;98365.41;;;17.37;100.00
53270;BME280;39159;45.634;9.420;2023-06-14T06:23:09;98366.38;;;17.49;100.00
53270;BME280;39159;45.634;9.420;2023-06-14T06:25:35;98362.63;;;17.60;100.00
53270;BME280;39159;45.634;9.420;2023-06-14T06:28:00;98376.06;;;17.62;100.00
53270;BME280;39159;45.634;9.420;2023-06-14T06:30:26;98380.84;;;17.65;100.00
53270;BME280;39159;45.634;9.420;2023-06-14T06:32:52;98382.19;;;17.75;100.00
53270;BME280;39159;45.634;9.420;2023-06-14T06:35:18;98384.34;;;17.85;100.00
53270;BME280;39159;45.634;9.420;2023-06-14T06:37:44;98389.94;;;17.89;100.00
53270;BME280;39159;45.634;9.420;2023-06-14T06:40:10;98392.31;;;17.90;100.00
53270;BME280;39159;45.634;9.420;2023-06-14T06:42:35;98391.09;;;17.88;100.00
53270;BME280;39159;45.634;9.420;2023-06-14T06:45:01;98394.41;;;17.97;100.00
53270;BME280;39159;45.634;9.420;2023-06-14T06:47:27;98395.13;;;17.94;100.00
53270;BME280;39159;45.634;9.420;2023-06-14T06:49:52;98394.00;;;17.98;100.00
53270;BME280;39159;45.634;9.420;2023-06-14T06:52:18;98394.59;;;18.11;100.00
53270;BME280;39159;45.634;9.420;2023-06-14T06:54:43;98399.13;;;18.23;100.00
53270;BME280;39159;45.634;9.420;2023-06-14T06:57:09;98397.97;;;18.24;100.00
53270;BME280;39159;45.634;9.420;2023-06-14T06:59:36;98395.72;;;18.33;100.00
53270;BME280;39159;45.634;9.420;2023-06-14T07:02:02;98402.66;;;18.50;100.00
53270;BME280;39159;45.634;9.420;2023-06-14T07:04:27;98403.53;;;18.58;100.00
53270;BME280;39159;45.634;9.420;2023-06-14T07:06:52;98402.94;;;18.72;100.00
53270;BME280;39159;45.634;9.420;2023-06-14T07:09:18;98400.81;;;18.92;100.00
53270;BME280;39159;45.634;9.420;2023-06-14T07:11:45;98405.22;;;18.96;100.00
53270;BME280;39159;45.634;9.420;2023-06-14T07:14:11;98411.66;;;19.04;100.00
53270;BME280;39159;45.634;9.420;2023-06-14T07:16:36;98417.03;;;19.27;100.00
53270;BME280;39159;45.634;9.420;2023-06-14T07:19:02;98417.38;;;19.59;100.00
53270;BME280;39159;45.634;9.420;2023-06-14T07:21:28;98414.78;;;19.81;100.00
53270;BME280;39159;45.634;9.420;2023-06-14T07:23:54;98415.50;;;20.22;100.00
53270;BME280;39159;45.634;9.420;2023-06-14T07:26:20;98424.69;;;20.30;100.00
53270;BME280;39159;45.634;9.420;2023-06-14T07:28:47;98431.47;;;20.40;100.00
53270;BME280;39159;45.634;9.420;2023-06-14T07:31:13;98429.53;;;20.44;100.00
53270;BME280;39159;45.634;9.420;2023-06-14T07:33:40;98432.66;;;20.42;100.00
53270;BME280;39159;45.634;9.420;2023-06-14T07:36:05;98434.31;;;20.50;100.00
53270;BME280;39159;45.634;9.420;2023-06-14T07:38:31;98434.78;;;20.60;100.00
53270;BME280;39159;45.634;9.420;2023-06-14T07:40:56;98429.34;;;20.85;100.00
53270;BME280;39159;45.634;9.420;2023-06-14T07:43:22;98435.44;;;21.23;100.00
53270;BME280;39159;45.634;9.420;2023-06-14T07:45:47;98438.59;;;21.18;100.00
53270;BME280;39159;45.634;9.420;2023-06-14T07:48:13;98436.63;;;21.22;100.00
53270;BME280;39159;45.634;9.420;2023-06-14T07:50:38;98444.50;;;21.09;100.00
53270;BME280;39159;45.634;9.420;2023-06-14T07:53:04;98442.50;;;20.99;100.00
53270;BME280;39159;45.634;9.420;2023-06-14T07:55:29;98442.13;;;21.04;100.00
53270;BME280;39159;45.634;9.420;2023-06-14T07:57:55;98446.88;;;21.03;100.00
53270;BME280;39159;45.634;9.420;2023-06-14T08:00:21;98446.13;;;21.17;100.00
53270;BME280;39159;45.634;9.420;2023-06-14T08:02:46;98440.19;;;21.15;100.00
53270;BME280;39159;45.634;9.420;2023-06-14T08:05:12;98443.75;;;21.16;100.00
53270;BME280;39159;45.634;9.420;2023-06-14T08:07:39;98442.72;;;21.63;100.00
53270;BME280;39159;45.634;9.420;2023-06-14T08:10:05;98445.50;;;21.88;100.00
53270;BME280;39159;45.634;9.420;2023-06-14T08:12:32;98451.44;;;21.94;100.00
53270;BME280;39159;45.634;9.420;2023-06-14T08:14:59;98441.13;;;22.59;100.00
53270;BME280;39159;45.634;9.420;2023-06-14T08:17:25;98440.69;;;22.64;100.00
53270;BME280;39159;45.634;9.420;2023-06-14T08:19:50;98444.63;;;22.81;100.00
53270;BME280;39159;45.634;9.420;2023-06-14T08:22:16;98448.63;;;22.69;100.00
53270;BME280;39159;45.634;9.420;2023-06-14T08:24:43;98454.53;;;22.79;98.59
53270;BME280;39159;45.634;9.420;2023-06-14T08:27:09;98451.34;;;23.02;97.36
53270;BME280;39159;45.634;9.420;2023-06-14T08:29:35;98441.44;;;22.75;100.00
53270;BME280;39159;45.634;9.420;2023-06-14T08:32:01;98446.06;;;23.22;96.30
53270;BME280;39159;45.634;9.420;2023-06-14T08:34:27;98449.09;;;23.49;93.72
53270;BME280;39159;45.634;9.420;2023-06-14T08:36:53;98454.38;;;23.29;89.13
53270;BME280;39159;45.634;9.420;2023-06-14T08:39:18;98448.44;;;23.27;91.67
53270;BME280;39159;45.634;9.420;2023-06-14T08:41:46;98458.91;;;23.01;85.39
53270;BME280;39159;45.634;9.420;2023-06-14T08:44:15;98457.66;;;23.13;91.55
53270;BME280;39159;45.634;9.420;2023-06-14T08:46:41;98465.19;;;23.16;90.20
53270;BME280;39159;45.634;9.420;2023-06-14T08:49:08;98460.34;;;23.31;91.37
53270;BME280;39159;45.634;9.420;2023-06-14T08:51:36;98461.41;;;23.51;96.14
53270;BME280;39159;45.634;9.420;2023-06-14T08:54:03;98468.38;;;23.11;82.87
53270;BME280;39159;45.634;9.420;2023-06-14T08:56:29;98472.34;;;23.10;82.03
53270;BME280;39159;45.634;9.420;2023-06-14T08:58:57;98474.00;;;23.04;82.76
53270;BME280;39159;45.634;9.420;2023-06-14T09:01:23;98471.19;;;23.07;88.85
53270;BME280;39159;45.634;9.420;2023-06-14T09:03:50;98471.13;;;23.18;81.81
53270;BME280;39159;45.634;9.420;2023-06-14T09:06:16;98473.88;;;23.29;79.08
53270;BME280;39159;45.634;9.420;2023-06-14T09:08:44;98470.44;;;23.73;79.49
53270;BME280;39159;45.634;9.420;2023-06-14T09:11:14;98467.81;;;24.08;83.22
53270;BME280;39159;45.634;9.420;2023-06-14T09:13:41;98468.19;;;24.13;80.07
53270;BME280;39159;45.634;9.420;2023-06-14T09:16:07;98470.88;;;24.24;75.68
53270;BME280;39159;45.634;9.420;2023-06-14T09:18:42;98456.72;;;24.00;74.42
53270;BME280;39159;45.634;9.420;2023-06-14T09:21:14;98469.63;;;23.76;71.79
53270;BME280;39159;45.634;9.420;2023-06-14T09:23:44;98465.25;;;23.72;72.93
53270;BME280;39159;45.634;9.420;2023-06-14T09:26:14;98465.63;;;23.85;74.77
53270;BME280;39159;45.634;9.420;2023-06-14T09:28:47;98464.53;;;24.20;73.35
53270;BME280;39159;45.634;9.420;2023-06-14T09:31:15;98461.81;;;24.13;67.17
53270;BME280;39159;45.634;9.420;2023-06-14T09:33:44;98461.81;;;24.13;65.81
53270;BME280;39159;45.634;9.420;2023-06-14T09:36:23;98465.47;;;24.06;65.62
53270;BME280;39159;45.634;9.420;2023-06-14T09:41:19;98473.28;;;24.67;73.71
53270;BME280;39159;45.634;9.420;2023-06-14T09:43:46;98470.13;;;24.65;67.22
53270;BME280;39159;45.634;9.420;2023-06-14T09:46:12;98461.94;;;24.85;68.77
53270;BME280;39159;45.634;9.420;2023-06-14T09:48:38;98475.78;;;24.54;66.29
53270;BME280;39159;45.634;9.420;2023-06-14T09:51:10;98459.88;;;24.55;67.93
53270;BME280;39159;45.634;9.420;2023-06-14T09:53:36;98475.84;;;24.47;66.76
53270;BME280;39159;45.634;9.420;2023-06-14T09:56:03;98463.47;;;24.07;71.16
53270;BME280;39159;45.634;9.420;2023-06-14T09:58:30;98465.41;;;24.13;71.76
53270;BME280;39159;45.634;9.420;2023-06-14T10:00:59;98465.84;;;24.57;65.07
53270;BME280;39159;45.634;9.420;2023-06-14T10:03:28;98470.94;;;24.66;67.43
53270;BME280;39159;45.634;9.420;2023-06-14T10:05:55;98462.88;;;24.71;65.00
53270;BME280;39159;45.634;9.420;2023-06-14T10:08:27;98464.44;;;24.76;67.22
53270;BME280;39159;45.634;9.420;2023-06-14T10:10:57;98460.94;;;25.02;64.65
53270;BME280;39159;45.634;9.420;2023-06-14T10:13:23;98461.91;;;24.89;56.73
53270;BME280;39159;45.634;9.420;2023-06-14T10:18:39;98451.69;;;25.09;58.98
53270;BME280;39159;45.634;9.420;2023-06-14T10:21:22;98449.97;;;24.85;58.44
53270;BME280;39159;45.634;9.420;2023-06-14T10:23:51;98451.13;;;24.87;59.78
53270;BME280;39159;45.634;9.420;2023-06-14T10:26:21;98455.91;;;24.90;59.93
53270;BME280;39159;45.634;9.420;2023-06-14T10:31:55;98448.91;;;24.75;64.90
53270;BME280;39159;45.634;9.420;2023-06-14T10:34:27;98451.81;;;24.64;64.09
53270;BME280;39159;45.634;9.420;2023-06-14T10:37:12;98443.88;;;24.97;67.38
53270;BME280;39159;45.634;9.420;2023-06-14T10:39:43;98437.03;;;25.32;65.83
53270;BME280;39159;45.634;9.420;2023-06-14T10:42:10;98446.38;;;25.76;61.67
53270;BME280;39159;45.634;9.420;2023-06-14T10:44:46;98446.44;;;25.73;61.68
53270;BME280;39159;45.634;9.420;2023-06-14T10:47:33;98449.75;;;25.95;58.97
53270;BME280;39159;45.634;9.420;2023-06-14T10:50:10;98449.88;;;25.84;58.90
53270;BME280;39159;45.634;9.420;2023-06-14T10:52:42;98443.84;;;25.58;58.13
53270;BME280;39159;45.634;9.420;2023-06-14T10:55:12;98439.59;;;24.85;62.73
53270;BME280;39159;45.634;9.420;2023-06-14T11:00:14;98444.56;;;24.25;63.27
53270;BME280;39159;45.634;9.420;2023-06-14T11:08:40;98430.66;;;25.59;59.26
53270;BME280;39159;45.634;9.420;2023-06-14T11:11:12;98436.59;;;25.64;61.32
53270;BME280;39159;45.634;9.420;2023-06-14T11:13:41;98436.53;;;25.68;61.61
53270;BME280;39159;45.634;9.420;2023-06-14T11:16:14;98429.41;;;25.36;61.00
53270;BME280;39159;45.634;9.420;2023-06-14T11:18:41;98431.94;;;24.93;63.77
53270;BME280;39159;45.634;9.420;2023-06-14T11:21:06;98427.69;;;25.12;62.77
53270;BME280;39159;45.634;9.420;2023-06-14T11:23:32;98424.50;;;25.13;60.25
53270;BME280;39159;45.634;9.420;2023-06-14T11:25:57;98430.22;;;25.64;59.89
53270;BME280;39159;45.634;9.420;2023-06-14T11:28:23;98423.13;;;25.83;55.18
53270;BME280;39159;45.634;9.420;2023-06-14T11:31:09;98423.66;;;25.47;54.58
53270;BME280;39159;45.634;9.420;2023-06-14T11:33:34;98418.44;;;25.49;54.90
53270;BME280;39159;45.634;9.420;2023-06-14T11:36:03;98418.50;;;25.15;57.39
53270;BME280;39159;45.634;9.420;2023-06-14T11:38:38;98414.84;;;25.76;54.53
53270;BME280;39159;45.634;9.420;2023-06-14T11:41:04;98414.91;;;25.99;50.91
53270;BME280;39159;45.634;9.420;2023-06-14T11:43:30;98413.59;;;26.27;53.70
53270;BME280;39159;45.634;9.420;2023-06-14T11:45:58;98411.91;;;26.57;51.42
53270;BME280;39159;45.634;9.420;2023-06-14T11:48:23;98424.25;;;26.60;48.67
53270;BME280;39159;45.634;9.420;2023-06-14T11:51:00;98415.44;;;26.38;50.73
53270;BME280;39159;45.634;9.420;2023-06-14T11:53:26;98411.25;;;26.70;51.21
53270;BME280;39159;45.634;9.420;2023-06-14T11:55:51;98415.44;;;26.38;49.93
53270;BME280;39159;45.634;9.420;2023-06-14T11:58:18;98403.56;;;26.30;49.64
53270;BME280;39159;45.634;9.420;2023-06-14T12:00:43;98402.69;;;26.57;49.55
53270;BME280;39159;45.634;9.420;2023-06-14T12:03:09;98404.88;;;26.69;47.75
53270;BME280;39159;45.634;9.420;2023-06-14T12:05:35;98405.38;;;26.64;46.49
53270;BME280;39159;45.634;9.420;2023-06-14T12:08:02;98396.97;;;26.84;46.44
53270;BME280;39159;45.634;9.420;2023-06-14T12:10:28;98399.22;;;26.73;47.32
53270;BME280;39159;45.634;9.420;2023-06-14T12:13:00;98390.31;;;26.54;47.78
53270;BME280;39159;45.634;9.420;2023-06-14T12:15:28;98384.84;;;26.71;47.03
53270;BME280;39159;45.634;9.420;2023-06-14T12:17:57;98374.84;;;26.90;49.60
53270;BME280;39159;45.634;9.420;2023-06-14T12:20:29;98378.38;;;26.74;47.93
53270;BME280;39159;45.634;9.420;2023-06-14T12:22:56;98382.31;;;26.96;50.05
53270;BME280;39159;45.634;9.420;2023-06-14T12:25:33;98378.31;;;26.97;51.81
53270;BME280;39159;45.634;9.420;2023-06-14T12:28:07;98386.38;;;27.12;48.96
53270;BME280;39159;45.634;9.420;2023-06-14T12:30:33;98379.66;;;27.09;46.88
53270;BME280;39159;45.634;9.420;2023-06-14T12:33:02;98380.06;;;27.27;49.28
53270;BME280;39159;45.634;9.420;2023-06-14T12:35:27;98373.16;;;27.32;48.04
53270;BME280;39159;45.634;9.420;2023-06-14T12:37:53;98370.47;;;27.08;50.59
53270;BME280;39159;45.634;9.420;2023-06-14T12:40:19;98376.25;;;26.61;52.93
53270;BME280;39159;45.634;9.420;2023-06-14T12:42:44;98375.00;;;27.02;51.78
53270;BME280;39159;45.634;9.420;2023-06-14T12:45:12;98375.41;;;27.21;50.46
53270;BME280;39159;45.634;9.420;2023-06-14T12:47:38;98372.53;;;27.24;52.50
53270;BME280;39159;45.634;9.420;2023-06-14T12:50:05;98371.53;;;27.15;50.85
53270;BME280;39159;45.634;9.420;2023-06-14T12:52:30;98375.91;;;27.16;50.59
53270;BME280;39159;45.634;9.420;2023-06-14T12:54:56;98371.84;;;27.00;50.75
53270;BME280;39159;45.634;9.420;2023-06-14T12:57:23;98369.56;;;26.75;53.13
53270;BME280;39159;45.634;9.420;2023-06-14T12:59:48;98365.22;;;27.11;52.70
53270;BME280;39159;45.634;9.420;2023-06-14T13:02:15;98369.06;;;27.17;52.15
53270;BME280;39159;45.634;9.420;2023-06-14T13:04:41;98363.97;;;27.12;50.31
53270;BME280;39159;45.634;9.420;2023-06-14T13:07:07;98362.94;;;26.65;50.57
53270;BME280;39159;45.634;9.420;2023-06-14T13:09:32;98368.34;;;26.76;51.18
53270;BME280;39159;45.634;9.420;2023-06-14T13:11:58;98353.00;;;26.64;52.27